Terminal Aerodrome Forecast
Issued by NWS Cleveland, OH

Home | Current Version | Previous Version | Text Only | Print | Product List | Glossary Off
Versions: 1 2 3 4 5 6 7 8 9 10 11 12 13 14 15 16 17 18 19 20 21 22 23 24 25 26 27 28 29 30 31 32

000
FTUS41 KCLE 250000 AAA
TAFCLE
TAF AMD
KCLE 250042Z 2501/2606 24025G35KT 6SM -SHRA SCT015 OVC035
     FM250300 24020G34KT 6SM -SHRA OVC012
     FM250900 24020G32KT 3SM -SHSN OVC018
     FM251200 24020G30KT P6SM -SHSN OVC018
     FM251500 25012G25KT 5SM -SHSN BR OVC018=

USA.gov is the U.S. government's official web portal to all federal, state and local government web resources and services.